aviador You're here:

YBBN Decoded Metar

BRISBANE in AUSTRALIA
Report Time2017-08-16 19:00:00
UTC Time2017-08-16 19:33:35
Flight Rules vfr VFR
Wind010° at 03 kt
W.Decomp.*RWY 01: 2.9 kt HW 0.6 kt LCW
RWY 32: 2.3 kt HW 1.9 kt RCW
W.Rank010° ranks 3
Current wind is below 010° avg. (10.5)
Visibility9999 m
Phenomena:Shallow Fog
Clouds:N/A
Expected CloudBase > 400 ft AGL from Temp-Dew spread
CeilingNone
Temp17°C (ISA +2)
Dew Point16°C (94% RH)
QNH1010 hPa
Density Alt597 ft
Elevation16 ft
Report Wrong Elevation
Raw Report
METAR YBBN 161900Z 01003KT 9999 MIFG NSC 17/16 Q1010 FM2100 33006KT
CAVOK=

Extra information for YBBN:More info

Metar Taf Metar & Taf Last 4 Metars F.Rules Stats Wind Profile Meteogram Temp Stats Airport Information Weather charts Add Link Nearby VenuesMetar ALERT Operation Metar Decoded Social comments